• Join FlightAware (Why Join?)
  • Login
  • US Flag 
10:37AM EDT


 

Airport Tracker/Info


-or-


 

Live Flight TrackerFlight Track Log ✈ RPA3159 ✈ 18-May-2013 ✈ KBTV - KPHL

Flight Track Log - Related Links

Times and Time Zones

All times are in EDT time to prevent confusion due to time zone crossing. See the RPA3159 flight status page for this flight to view local times or setup timezone preferences in your user account.

Time Position Orientation Groundspeed Altitude Reporting Facility
EDT Latitude Longitude Course Direction KTS MPH feet Rate Location/Type
12:46PM 44.2016 -73.2500 180° South  Level FlightAware Approximate
12:46PM 44.3611 -73.1572 195° South 253 291 4,600  Level Boston Center
12:47PM 44.1127 -73.2828 195° South  Level FlightAware Approximate
12:47PM 44.2881 -73.1853 195° South 271 312 7,100  Level Boston Center
12:48PM 44.0234 -73.3144 194° South  Level FlightAware Approximate
12:48PM 44.2150 -73.2164 197° South 276 318 9,700  Level Boston Center
12:49PM 43.9339 -73.3443 193° South  Level FlightAware Approximate
12:49PM 44.1375 -73.2500 197° South 307 353 10,900  Level Boston Center
12:50PM 43.8449 -73.3770 195° South  Level FlightAware Approximate
12:50PM 44.0558 -73.3153 210° Southwest 334 384 13,700  Level Boston Center
12:51PM 43.7470 -73.4137 195° South  Level FlightAware Approximate
12:51PM 43.9697 -73.3919 213° Southwest 363 418 16,000  Level Boston Center
12:52PM 43.8858 -73.4683 213° Southwest 373 429 18,000 1,980 Climbing Boston Center
12:53PM 43.7933 -73.5531 213° Southwest 389 448 20,000 1,860 Climbing Boston Center
12:54PM 43.7008 -73.6347 213° Southwest 394 453 21,800 1,800 Climbing Boston Center
12:55PM 43.5956 -73.7272 212° Southwest 399 459 23,700 1,740 Climbing Boston Center
12:56PM 43.4989 -73.8139 213° Southwest 414 476 25,300 1,140 Climbing Boston Center
12:57PM 43.3997 -73.9003 212° Southwest 420 483 26,000 300 Climbing Boston Center
12:58PM 43.2986 -73.9892 213° Southwest 426 490 26,000  Level Boston Center
12:59PM 43.1994 -74.0750 212° Southwest 426 490 26,000  Level Boston Center
01:00PM 43.1064 -74.1633 215° Southwest 420 483 26,000  Level Boston Center
01:01PM 43.0072 -74.2458 211° Southwest 420 483 26,000  Level Boston Center
01:02PM 42.9119 -74.3311 213° Southwest 420 483 26,000  Level Boston Center
01:03PM 42.8147 -74.4158 213° Southwest 420 483 26,000  Level Boston Center
01:04PM 42.7194 -74.4975 212° Southwest 420 483 26,000  Level Boston Center
01:05PM 42.6200 -74.5817 212° Southwest 420 483 26,000 -180 Level Boston Center
01:06PM 42.5225 -74.6656 212° Southwest 420 483 25,700 -660 Descending Boston Center
01:07PM 42.4269 -74.7494 213° Southwest 420 483 24,700 -1,080 Descending Boston Center
01:09PM 42.2172 -74.9233 212° Southwest 414 476 22,200 -1,140 Descending New York Center
01:10PM 42.1183 -75.0122 214° Southwest 407 468 20,900 -1,260 Descending New York Center
01:11PM 42.0261 -75.0844 210° Southwest 394 453 19,800 -960 Descending New York Center
01:12PM 41.9381 -75.1594 212° Southwest 387 445 19,000 -420 Descending New York Center
01:13PM 41.8500 -75.2289 210° Southwest 387 445 19,000 -660 Level New York Center
01:14PM 41.7683 -75.2956 211° Southwest 380 437 17,800 -1,500 Descending New York Center
01:15PM 41.6783 -75.3672 211° Southwest 380 437 16,000 -1,740 Descending New York Center
01:16PM 41.5858 -75.4414 211° Southwest 375 432 14,300 -1,620 Descending New York Center
01:17PM 41.5019 -75.5075 211° Southwest 370 426 12,900 -1,200 Descending New York Center
01:18PM 41.4308 -75.5661 212° Southwest 355 409 12,000 -480 Descending New York Center
01:19PM 41.3428 -75.6344 210° Southwest 350 403 12,000  Level New York Center
01:20PM 41.2783 -75.6822 209° Southwest 350 403 12,000  Level New York Center
01:21PM 41.1656 -75.6878 182° South 330 380 12,000 -360 Level New York Center
01:22PM 41.0725 -75.6728 173° South 338 389 11,300 -540 Descending New York Center
01:23PM 40.9903 -75.6422 164° South 338 389 11,000 -660 Descending New York Center
01:24PM 40.8981 -75.6053 163° South 326 375 10,000 -540 Descending New York Center
01:25PM 40.8139 -75.5747 165° South 316 364 10,000  Level New York Center
01:26PM 40.7300 -75.5386 162° South 316 364 10,000  Level New York Center
01:27PM 40.6539 -75.5117 165° South 316 364 10,000  Level New York Center
01:28PM 40.5700 -75.4756 162° South 316 364 10,000  Level New York Center
01:29PM 40.4897 -75.4456 164° South 311 358 10,000 -300 Level New York Center
01:30PM 40.4119 -75.4103 161° South 300 345 9,500 -1,080 Descending New York Center
01:31PM 40.3386 -75.3672 156° South 300 345 7,900 -1,260 Descending New York Center
01:32PM 40.2600 -75.3567 174° South 278 320 7,000 -480 Descending New York Center
01:33PM 40.1856 -75.3897 199° South 272 313 7,000 -180 Level New York Center
01:34PM 40.1156 -75.4206 199° South 282 325 6,700 -540 Descending New York Center
01:35PM 40.0456 -75.4508 198° South 272 313 6,000 -420 Descending New York Center
01:36PM 39.9867 -75.4686 193° South 246 283 5,900 -780 Descending New York Center
01:37PM 39.9372 -75.4492 163° South 206 237 4,500 -1,440 Descending New York Center
01:38PM 39.8817 -75.4344 169° South 196 226 3,100 -1,380 Descending New York Center
01:39PM 39.8394 -75.3911 142° Southeast 196 226 1,800 -1,320 Descending New York Center
01:39PM 39.8500 -75.3667 61° Northeast 178 205 1,300 -900 Descending Philadelphia TRACON
01:40PM 39.8500 -75.3000 90° East 135 155 500 -840 Descending Philadelphia TRACON